createdAt,value
2022-08-18T00:02:14.537Z,20.55
2022-08-18T00:05:31.552Z,20.62
2022-08-18T00:08:48.193Z,20.61
2022-08-18T00:12:04.865Z,20.52
2022-08-18T00:15:24.861Z,20.44
2022-08-18T00:18:40.962Z,20.37
2022-08-18T00:21:57.195Z,20.31
2022-08-18T00:25:18.352Z,20.35
2022-08-18T00:28:34.956Z,20.32
2022-08-18T00:31:51.226Z,20.23
2022-08-18T00:35:19.266Z,20.17
2022-08-18T00:38:35.718Z,20.03
2022-08-18T00:41:52.099Z,20.00
2022-08-18T00:45:11.704Z,19.99
2022-08-18T00:48:28.536Z,19.98
2022-08-18T00:51:51.444Z,19.93
2022-08-18T00:55:09.418Z,19.90
2022-08-18T00:58:30.883Z,19.97
2022-08-18T01:01:49.274Z,19.98
2022-08-18T01:05:09.956Z,19.94
2022-08-18T01:08:29.201Z,19.88
2022-08-18T01:11:46.464Z,19.86
2022-08-18T01:15:04.124Z,19.79
2022-08-18T01:18:36.409Z,19.79
2022-08-18T01:21:57.185Z,19.77
2022-08-18T01:25:29.438Z,19.77
2022-08-18T01:28:50.284Z,19.86
2022-08-18T01:32:06.719Z,19.81
2022-08-18T01:35:26.362Z,19.78
2022-08-18T01:38:43.817Z,19.79
2022-08-18T01:42:00.252Z,19.76
2022-08-18T01:45:19.578Z,19.73
2022-08-18T01:48:37.804Z,19.68
2022-08-18T01:51:55.704Z,19.62
2022-08-18T01:55:14.752Z,19.62
2022-08-18T01:58:33.638Z,19.60
2022-08-18T02:01:54.913Z,19.58
2022-08-18T02:05:16.805Z,19.54
2022-08-18T02:08:33.437Z,19.64
2022-08-18T02:11:49.674Z,19.59
2022-08-18T02:15:08.711Z,19.55
2022-08-18T02:18:47.638Z,19.51
2022-08-18T02:21:46.768Z,19.42
2022-08-18T02:25:04.388Z,19.44
2022-08-18T02:28:25.256Z,19.42
2022-08-18T02:31:41.230Z,19.35
2022-08-18T02:34:57.419Z,19.38
2022-08-18T02:38:15.728Z,19.32
2022-08-18T02:41:34.669Z,19.29
2022-08-18T02:44:53.335Z,19.38
2022-08-18T02:48:09.850Z,19.44
2022-08-18T02:51:28.366Z,19.44
2022-08-18T02:54:44.702Z,19.39
2022-08-18T02:58:02.654Z,19.30
2022-08-18T03:01:18.958Z,19.23
2022-08-18T03:04:38.940Z,19.23
2022-08-18T03:07:56.275Z,19.27
2022-08-18T03:11:12.660Z,19.34
2022-08-18T03:14:28.940Z,19.46
2022-08-18T03:17:46.878Z,19.49
2022-08-18T03:21:03.963Z,19.47
2022-08-18T03:24:24.249Z,19.44
2022-08-18T03:27:41.800Z,19.43
2022-08-18T03:30:57.990Z,19.42
2022-08-18T03:34:17.006Z,19.44
2022-08-18T03:37:31.052Z,19.33
2022-08-18T03:40:48.277Z,19.27
2022-08-18T03:44:04.752Z,19.34
2022-08-18T03:47:22.576Z,19.34
2022-08-18T03:50:40.593Z,19.39
2022-08-18T03:53:58.418Z,19.44
2022-08-18T04:00:50.671Z,19.38
2022-08-18T04:04:12.227Z,19.39
2022-08-18T04:07:28.413Z,19.42
2022-08-18T04:10:44.932Z,19.36
2022-08-18T04:14:02.540Z,19.38
2022-08-18T04:17:22.476Z,19.29
2022-08-18T04:20:59.344Z,19.31
2022-08-18T04:24:00.794Z,19.28
2022-08-18T04:27:16.902Z,19.29
2022-08-18T04:30:33.316Z,19.25
2022-08-18T04:33:50.262Z,19.20
2022-08-18T04:37:07.564Z,19.25
2022-08-18T04:40:25.341Z,19.23
2022-08-18T04:43:42.952Z,19.26
2022-08-18T04:47:01.269Z,19.28
2022-08-18T04:50:18.801Z,19.26
2022-08-18T04:53:53.259Z,19.27
2022-08-18T04:57:14.584Z,19.28
2022-08-18T05:00:30.617Z,19.37
2022-08-18T05:03:50.002Z,19.41
2022-08-18T05:07:05.738Z,19.45
2022-08-18T05:10:25.868Z,19.50
2022-08-18T05:13:42.392Z,19.49
2022-08-18T05:16:59.158Z,19.48
2022-08-18T05:20:18.170Z,19.49
2022-08-18T05:23:35.137Z,19.54
2022-08-18T05:26:54.612Z,19.59
2022-08-18T05:30:12.881Z,19.67
2022-08-18T05:33:29.253Z,19.77
2022-08-18T05:37:20.603Z,19.86
2022-08-18T05:40:37.189Z,19.96
2022-08-18T05:43:55.647Z,20.06
2022-08-18T05:47:17.765Z,20.16
2022-08-18T05:50:35.665Z,20.26
2022-08-18T05:54:06.652Z,20.39
2022-08-18T05:57:26.689Z,20.56
2022-08-18T06:00:43.803Z,20.72
2022-08-18T06:04:06.701Z,20.91
2022-08-18T06:07:33.460Z,21.03
2022-08-18T06:10:52.198Z,21.16
2022-08-18T06:14:08.599Z,21.25
2022-08-18T06:17:40.208Z,21.38
2022-08-18T06:21:38.297Z,21.53
2022-08-18T06:24:57.767Z,21.67
2022-08-18T06:28:18.706Z,21.79
2022-08-18T06:31:43.268Z,21.94
2022-08-18T06:35:12.047Z,22.10
2022-08-18T06:38:46.179Z,22.25
2022-08-18T06:42:06.369Z,22.55
2022-08-18T06:45:25.271Z,22.68
2022-08-18T06:48:49.627Z,22.78
2022-08-18T06:52:05.960Z,22.88
2022-08-18T06:55:27.402Z,23.00
2022-08-18T06:58:43.553Z,23.14
2022-08-18T07:02:02.802Z,23.16
2022-08-18T07:05:35.158Z,23.20
2022-08-18T07:08:53.597Z,23.38
2022-08-18T07:12:14.586Z,23.52
2022-08-18T07:15:35.236Z,23.68
2022-08-18T07:18:52.208Z,23.96
2022-08-18T07:22:17.192Z,24.18
2022-08-18T07:25:37.732Z,24.45
2022-08-18T07:28:56.699Z,24.71
2022-08-18T07:32:21.473Z,24.94
2022-08-18T07:35:44.787Z,25.14
2022-08-18T07:39:06.405Z,25.35
2022-08-18T07:42:33.160Z,25.61
2022-08-18T07:45:49.732Z,26.00
2022-08-18T07:49:07.287Z,26.21
2022-08-18T07:52:36.519Z,26.35
2022-08-18T07:55:53.117Z,26.72
2022-08-18T07:59:15.255Z,27.10
2022-08-18T08:02:50.070Z,27.25
2022-08-18T08:06:13.749Z,27.69
2022-08-18T08:09:47.163Z,28.09
2022-08-18T08:13:09.663Z,28.43
2022-08-18T08:16:33.923Z,28.63
2022-08-18T08:20:20.597Z,28.99
2022-08-18T08:23:45.218Z,29.42
2022-08-18T08:27:05.856Z,29.57
2022-08-18T08:30:26.213Z,29.57
2022-08-18T08:33:49.472Z,29.43
2022-08-18T08:37:11.362Z,29.48
2022-08-18T08:40:32.039Z,29.97
2022-08-18T08:43:53.311Z,30.05
2022-08-18T08:47:13.838Z,30.06
2022-08-18T08:50:37.433Z,30.13
2022-08-18T08:53:59.180Z,30.45
2022-08-18T08:57:18.022Z,30.34
2022-08-18T09:04:14.081Z,30.32
2022-08-18T09:07:42.818Z,30.41
2022-08-18T09:11:24.388Z,30.78
2022-08-18T09:15:07.031Z,30.90
2022-08-18T09:18:56.713Z,30.92
2022-08-18T09:22:18.173Z,30.92
2022-08-18T09:25:59.438Z,30.91
2022-08-18T09:29:30.445Z,30.49
2022-08-18T09:33:18.852Z,30.73
2022-08-18T09:36:41.972Z,30.84
2022-08-18T09:40:33.378Z,30.76
2022-08-18T09:43:44.611Z,30.63
2022-08-18T09:47:09.056Z,30.50
2022-08-18T09:51:28.488Z,30.87
2022-08-18T09:54:57.387Z,30.88
2022-08-18T09:58:50.233Z,30.84
2022-08-18T10:02:14.216Z,30.85
2022-08-18T10:05:39.305Z,30.77
2022-08-18T10:09:36.704Z,30.84
2022-08-18T10:13:17.153Z,31.03
2022-08-18T10:17:13.097Z,30.93
2022-08-18T10:20:08.204Z,30.78
2022-08-18T10:24:14.711Z,30.71
2022-08-18T10:27:34.426Z,30.78
2022-08-18T10:31:12.307Z,30.87
2022-08-18T10:34:52.278Z,31.00
2022-08-18T10:38:05.677Z,31.03
2022-08-18T10:41:32.266Z,31.05
2022-08-18T10:44:53.078Z,30.94
2022-08-18T10:48:18.581Z,30.47
2022-08-18T10:52:00.431Z,30.76
2022-08-18T10:55:49.162Z,30.63
2022-08-18T10:59:16.550Z,30.42
2022-08-18T11:02:45.071Z,30.37
2022-08-18T11:06:21.219Z,30.22
2022-08-18T11:09:41.906Z,30.27
2022-08-18T11:13:13.828Z,30.11
2022-08-18T11:16:42.573Z,30.33
2022-08-18T11:20:03.229Z,30.40
2022-08-18T11:23:25.929Z,30.51
2022-08-18T11:26:52.351Z,30.24
2022-08-18T11:30:12.136Z,30.18
2022-08-18T11:33:30.714Z,30.06
2022-08-18T11:36:50.118Z,30.03
2022-08-18T11:40:17.700Z,29.86
2022-08-18T11:46:56.819Z,29.70
2022-08-18T11:50:20.521Z,29.63
2022-08-18T11:53:55.584Z,29.58
2022-08-18T11:57:46.208Z,29.55
2022-08-18T12:01:08.950Z,29.57
2022-08-18T12:04:35.720Z,29.48
2022-08-18T12:11:27.644Z,29.16
2022-08-18T12:15:13.837Z,29.12
2022-08-18T12:18:28.606Z,29.06
2022-08-18T12:21:40.312Z,28.99
2022-08-18T12:25:01.023Z,28.96
2022-08-18T12:28:17.391Z,28.96
2022-08-18T12:31:47.487Z,28.85
2022-08-18T12:34:51.712Z,28.77
2022-08-18T12:38:12.987Z,28.81
2022-08-18T12:41:26.497Z,28.84
2022-08-18T12:44:43.045Z,28.82
2022-08-18T12:48:00.376Z,28.83
2022-08-18T12:51:18.000Z,28.74
2022-08-18T12:54:36.875Z,28.72
2022-08-18T12:57:55.169Z,28.73
2022-08-18T13:01:11.390Z,28.79
2022-08-18T13:04:27.785Z,28.82
2022-08-18T13:07:44.164Z,28.75
2022-08-18T13:11:14.810Z,28.73
2022-08-18T13:14:20.814Z,28.70
2022-08-18T13:17:41.531Z,28.78
2022-08-18T13:20:59.410Z,28.80
2022-08-18T13:24:16.487Z,28.78
2022-08-18T13:27:35.936Z,28.79
2022-08-18T13:30:54.232Z,28.76
2022-08-18T13:34:15.335Z,28.78
2022-08-18T13:37:32.857Z,28.76
2022-08-18T13:40:49.768Z,28.75
2022-08-18T13:44:05.976Z,28.75
2022-08-18T13:47:24.233Z,28.77
2022-08-18T13:50:41.753Z,28.72
2022-08-18T13:54:17.843Z,28.72
2022-08-18T13:57:17.478Z,28.70
2022-08-18T14:00:35.466Z,28.68
2022-08-18T14:03:52.571Z,28.70
2022-08-18T14:07:11.117Z,28.69
2022-08-18T14:10:28.975Z,28.66
2022-08-18T14:13:45.239Z,28.66
2022-08-18T14:17:01.322Z,28.63
2022-08-18T14:20:34.587Z,28.61
2022-08-18T14:24:00.951Z,28.63
2022-08-18T14:27:17.645Z,28.62
2022-08-18T14:30:34.248Z,28.59
2022-08-18T14:33:53.704Z,28.56
2022-08-18T14:37:10.746Z,28.57
2022-08-18T14:40:28.404Z,28.55
2022-08-18T14:44:10.933Z,28.56
2022-08-18T14:47:04.060Z,28.57
2022-08-18T14:50:21.422Z,28.56
2022-08-18T14:53:41.858Z,28.55
2022-08-18T14:56:59.521Z,28.56
2022-08-18T15:00:22.674Z,28.60
2022-08-18T15:03:41.187Z,28.59
2022-08-18T15:06:58.387Z,28.55
2022-08-18T15:10:19.919Z,28.49
2022-08-18T15:13:39.043Z,28.46
2022-08-18T15:16:55.161Z,28.46
2022-08-18T15:20:14.777Z,28.42
2022-08-18T15:23:46.634Z,28.41
2022-08-18T15:27:10.232Z,28.40
2022-08-18T15:30:26.503Z,28.41
2022-08-18T15:33:43.148Z,28.38
2022-08-18T15:37:03.026Z,28.34
2022-08-18T15:40:31.169Z,28.35
2022-08-18T15:43:46.276Z,28.34
2022-08-18T15:47:03.059Z,28.31
2022-08-18T15:50:25.208Z,28.27
2022-08-18T15:53:40.090Z,28.24
2022-08-18T15:56:58.370Z,28.22
2022-08-18T16:00:21.153Z,28.22
2022-08-18T16:03:39.186Z,28.19
2022-08-18T16:06:56.901Z,28.17
2022-08-18T16:10:15.887Z,28.17
2022-08-18T16:13:33.582Z,28.15
2022-08-18T16:16:49.852Z,28.11
2022-08-18T16:20:06.027Z,28.08
2022-08-18T16:23:22.904Z,28.09
2022-08-18T16:26:39.294Z,28.06
2022-08-18T16:29:55.326Z,28.03
2022-08-18T16:33:14.208Z,27.99
2022-08-18T16:36:34.179Z,27.97
2022-08-18T16:39:50.558Z,27.92
2022-08-18T16:43:07.564Z,27.91
2022-08-18T16:46:28.433Z,27.86
2022-08-18T16:49:45.335Z,27.83
2022-08-18T16:53:02.901Z,27.77
2022-08-18T16:56:25.661Z,27.73
2022-08-18T16:59:56.195Z,27.71
2022-08-18T17:03:33.628Z,27.67
2022-08-18T17:06:50.565Z,27.62
2022-08-18T17:10:13.014Z,27.59
2022-08-18T17:13:36.083Z,27.56
2022-08-18T17:17:04.976Z,27.50
2022-08-18T17:20:25.662Z,27.44
2022-08-18T17:23:48.867Z,27.42
2022-08-18T17:27:26.486Z,27.37
2022-08-18T17:30:41.275Z,27.31
2022-08-18T17:34:00.744Z,27.24
2022-08-18T17:37:24.804Z,27.15
2022-08-18T17:40:46.452Z,27.07
2022-08-18T17:44:08.894Z,27.01
2022-08-18T17:47:33.379Z,26.93
2022-08-18T17:51:17.720Z,26.88
2022-08-18T17:54:43.017Z,26.82
2022-08-18T17:58:05.286Z,26.73
2022-08-18T18:01:23.033Z,26.69
2022-08-18T18:04:38.741Z,26.62
2022-08-18T18:08:07.272Z,26.57
2022-08-18T18:11:25.457Z,26.50
2022-08-18T18:14:44.816Z,26.45
2022-08-18T18:18:02.507Z,26.42
2022-08-18T18:22:00.556Z,26.43
2022-08-18T18:28:04.361Z,26.41
2022-08-18T18:31:35.333Z,26.31
2022-08-18T18:34:59.851Z,26.05
2022-08-18T18:38:30.577Z,25.72
2022-08-18T18:41:51.764Z,25.53
2022-08-18T18:45:14.636Z,25.58
2022-08-18T18:48:51.169Z,25.57
2022-08-18T18:51:57.579Z,25.41
2022-08-18T18:55:21.629Z,25.43
2022-08-18T18:58:47.022Z,25.50
2022-08-18T19:02:32.877Z,25.51
2022-08-18T19:05:35.914Z,25.50
2022-08-18T19:09:03.506Z,25.46
2022-08-18T19:12:37.153Z,25.42
2022-08-18T19:16:02.308Z,25.38
2022-08-18T19:19:38.465Z,25.34
2022-08-18T19:22:54.993Z,25.27
2022-08-18T19:26:15.543Z,25.15
2022-08-18T19:29:42.341Z,25.03
2022-08-18T19:33:12.854Z,25.05
2022-08-18T19:36:37.779Z,24.92
2022-08-18T19:40:00.739Z,24.86
2022-08-18T19:43:26.126Z,24.79
2022-08-18T19:46:47.740Z,24.68
2022-08-18T19:50:11.239Z,24.63
2022-08-18T19:53:50.528Z,24.53
2022-08-18T19:57:32.498Z,24.42
2022-08-18T20:00:54.629Z,24.37
2022-08-18T20:04:27.974Z,24.29
2022-08-18T20:08:48.525Z,24.23
2022-08-18T20:12:18.267Z,24.18
2022-08-18T20:15:37.288Z,24.17
2022-08-18T20:18:57.211Z,24.08
2022-08-18T20:22:22.090Z,24.02
2022-08-18T20:25:52.346Z,24.00
2022-08-18T20:29:10.334Z,23.92
2022-08-18T20:32:36.925Z,23.82
2022-08-18T20:36:08.794Z,23.71
2022-08-18T20:39:56.503Z,23.59
2022-08-18T20:43:13.378Z,23.51
2022-08-18T20:46:41.374Z,23.47
2022-08-18T20:50:11.609Z,23.41
2022-08-18T20:54:01.483Z,23.35
2022-08-18T20:57:20.649Z,23.24
2022-08-18T21:00:37.619Z,23.16
2022-08-18T21:03:55.598Z,23.12
2022-08-18T21:07:14.298Z,23.08
2022-08-18T21:10:32.943Z,23.10
2022-08-18T21:13:57.282Z,23.12
2022-08-18T21:17:24.049Z,23.12
2022-08-18T21:20:41.287Z,23.12
2022-08-18T21:24:01.865Z,23.04
2022-08-18T21:27:24.510Z,23.00
2022-08-18T21:30:41.162Z,22.86
2022-08-18T21:34:04.776Z,22.78
2022-08-18T21:37:24.981Z,22.68
2022-08-18T21:40:48.316Z,22.69
2022-08-18T21:44:09.325Z,22.65
2022-08-18T21:47:29.943Z,22.63
2022-08-18T21:50:54.264Z,22.62
2022-08-18T21:54:10.766Z,22.62
2022-08-18T21:57:33.888Z,22.54
2022-08-18T22:00:52.541Z,22.42
2022-08-18T22:04:13.099Z,22.38
2022-08-18T22:07:34.983Z,22.38
2022-08-18T22:11:03.247Z,22.37
2022-08-18T22:14:53.755Z,22.35
2022-08-18T22:18:06.229Z,22.33
2022-08-18T22:21:46.264Z,22.28
2022-08-18T22:25:09.931Z,22.19
2022-08-18T22:28:32.381Z,22.17
2022-08-18T22:31:52.762Z,22.10
2022-08-18T22:35:10.109Z,22.04
2022-08-18T22:38:26.262Z,22.02
2022-08-18T22:41:42.714Z,22.01
2022-08-18T22:45:04.586Z,22.00
2022-08-18T22:48:16.929Z,21.98
2022-08-18T22:51:37.724Z,21.96
2022-08-18T22:54:55.618Z,21.95
2022-08-18T22:58:14.960Z,21.96
2022-08-18T23:01:33.366Z,21.97
2022-08-18T23:04:50.020Z,21.97
2022-08-18T23:08:06.195Z,21.95
2022-08-18T23:11:22.524Z,21.90
2022-08-18T23:14:42.377Z,21.86
2022-08-18T23:17:59.027Z,21.84
2022-08-18T23:21:33.574Z,21.79
2022-08-18T23:24:34.047Z,21.77
2022-08-18T23:27:53.587Z,21.74
2022-08-18T23:31:09.805Z,21.68
2022-08-18T23:34:29.708Z,21.68
2022-08-18T23:37:50.090Z,21.70
2022-08-18T23:41:06.395Z,21.71
2022-08-18T23:44:23.844Z,21.66
2022-08-18T23:47:39.120Z,21.53
2022-08-18T23:51:00.814Z,21.43
2022-08-18T23:54:21.206Z,21.33
2022-08-18T23:57:37.322Z,21.22
